createdAt,value
2018-10-05T00:00:40.505Z,6.20
2018-10-05T00:03:08.924Z,6.20
2018-10-05T00:05:37.080Z,6.20
2018-10-05T00:08:05.195Z,5.70
2018-10-05T00:10:33.299Z,6.10
2018-10-05T00:13:01.396Z,5.90
2018-10-05T00:15:29.676Z,6.10
2018-10-05T00:17:57.955Z,6.00
2018-10-05T00:20:26.064Z,5.90
2018-10-05T00:22:54.178Z,6.00
2018-10-05T00:25:22.280Z,6.00
2018-10-05T00:27:50.439Z,5.80
2018-10-05T00:30:18.573Z,5.70
2018-10-05T00:32:46.691Z,5.80
2018-10-05T00:35:14.759Z,5.80
2018-10-05T00:37:43.310Z,5.60
2018-10-05T00:40:11.505Z,5.70
2018-10-05T00:42:39.683Z,5.70
2018-10-05T00:45:07.824Z,5.70
2018-10-05T00:47:36.238Z,5.80
2018-10-05T00:50:04.405Z,5.70
2018-10-05T00:52:32.527Z,5.80
2018-10-05T00:55:01.273Z,5.70
2018-10-05T00:57:29.368Z,5.60
2018-10-05T00:59:57.511Z,5.70
2018-10-05T01:02:25.605Z,5.50
2018-10-05T01:04:53.708Z,5.50
2018-10-05T01:07:21.903Z,5.40
2018-10-05T01:09:50.667Z,5.60
2018-10-05T01:12:18.790Z,5.40
2018-10-05T01:14:46.876Z,5.30
2018-10-05T01:17:15.418Z,5.40
2018-10-05T01:19:43.514Z,5.30
2018-10-05T01:22:11.697Z,5.30
2018-10-05T01:24:40.019Z,5.30
2018-10-05T01:27:08.162Z,5.20
2018-10-05T01:29:36.244Z,5.30
2018-10-05T01:32:04.428Z,5.30
2018-10-05T01:34:32.549Z,5.30
2018-10-05T01:37:00.751Z,5.20
2018-10-05T01:39:29.249Z,5.20
2018-10-05T01:41:57.652Z,5.20
2018-10-05T01:44:25.732Z,5.40
2018-10-05T01:46:53.852Z,5.50
2018-10-05T01:49:21.967Z,5.50
2018-10-05T01:51:50.207Z,5.70
2018-10-05T01:54:18.308Z,5.50
2018-10-05T01:56:46.438Z,5.40
2018-10-05T01:59:14.554Z,5.60
2018-10-05T02:01:43.275Z,5.30
2018-10-05T02:04:12.207Z,5.30
2018-10-05T02:06:40.553Z,5.20
2018-10-05T02:09:08.682Z,5.20
2018-10-05T02:11:36.823Z,5.10
2018-10-05T02:14:04.908Z,5.00
2018-10-05T02:16:33.003Z,5.10
2018-10-05T02:19:01.776Z,4.90
2018-10-05T02:21:30.424Z,5.10
2018-10-05T02:23:58.564Z,5.00
2018-10-05T02:26:26.715Z,4.80
2018-10-05T02:28:54.795Z,5.00
2018-10-05T02:31:22.908Z,5.00
2018-10-05T02:33:51.127Z,4.70
2018-10-05T02:36:19.199Z,4.70
2018-10-05T02:38:47.851Z,4.90
2018-10-05T02:41:15.961Z,4.80
2018-10-05T02:43:44.078Z,4.60
2018-10-05T02:46:12.240Z,4.80
2018-10-05T02:48:40.370Z,4.60
2018-10-05T02:51:08.456Z,4.80
2018-10-05T02:53:36.879Z,4.80
2018-10-05T02:56:04.992Z,4.70
2018-10-05T02:58:33.143Z,4.50
2018-10-05T03:01:12.748Z,4.50
2018-10-05T03:03:41.023Z,4.50
2018-10-05T03:06:09.162Z,4.50
2018-10-05T03:08:37.263Z,4.50
2018-10-05T03:11:05.804Z,4.50
2018-10-05T03:13:33.995Z,4.50
2018-10-05T03:16:02.139Z,4.60
2018-10-05T03:18:30.239Z,4.50
2018-10-05T03:20:58.344Z,4.50
2018-10-05T03:23:26.441Z,4.60
2018-10-05T03:25:54.574Z,4.60
2018-10-05T03:28:22.665Z,4.50
2018-10-05T03:30:50.943Z,4.40
2018-10-05T03:33:19.030Z,4.50
2018-10-05T03:35:47.107Z,4.70
2018-10-05T03:38:15.251Z,4.40
2018-10-05T03:40:43.388Z,4.40
2018-10-05T03:43:12.024Z,4.10
2018-10-05T03:45:40.765Z,4.40
2018-10-05T03:48:08.892Z,4.30
2018-10-05T03:50:37.940Z,4.30
2018-10-05T03:53:06.644Z,4.30
2018-10-05T03:55:34.732Z,4.30
2018-10-05T03:58:02.824Z,4.30
2018-10-05T04:00:31.485Z,4.00
2018-10-05T04:03:01.477Z,4.10
2018-10-05T04:05:29.639Z,4.20
2018-10-05T04:07:57.886Z,4.10
2018-10-05T04:10:26.009Z,4.10
2018-10-05T04:12:54.104Z,4.10
2018-10-05T04:15:22.443Z,4.10
2018-10-05T04:17:50.684Z,3.80
2018-10-05T04:20:19.012Z,4.10
2018-10-05T04:22:47.168Z,4.10
2018-10-05T04:25:15.290Z,4.20
2018-10-05T04:27:43.363Z,4.30
2018-10-05T04:30:11.491Z,4.30
2018-10-05T04:32:40.215Z,4.40
2018-10-05T04:35:08.328Z,4.10
2018-10-05T04:37:36.463Z,3.90
2018-10-05T04:40:04.580Z,4.20
2018-10-05T04:42:33.122Z,4.00
2018-10-05T04:45:01.712Z,3.90
2018-10-05T04:47:30.163Z,3.90
2018-10-05T04:49:58.257Z,3.80
2018-10-05T04:52:26.436Z,4.00
2018-10-05T04:54:54.522Z,3.50
2018-10-05T04:57:22.631Z,3.80
2018-10-05T04:59:50.928Z,3.70
2018-10-05T05:02:19.011Z,3.90
2018-10-05T05:04:47.131Z,3.90
2018-10-05T05:07:15.280Z,3.80
2018-10-05T05:09:43.373Z,3.80
2018-10-05T05:12:11.585Z,4.00
2018-10-05T05:14:39.999Z,4.00
2018-10-05T05:17:08.140Z,3.90
2018-10-05T05:19:36.249Z,3.90
2018-10-05T05:22:25.704Z,4.00
2018-10-05T05:25:07.001Z,4.20
2018-10-05T05:27:36.581Z,4.30
2018-10-05T05:30:04.907Z,4.40
2018-10-05T05:32:33.001Z,4.50
2018-10-05T05:35:01.524Z,4.80
2018-10-05T05:37:30.013Z,4.70
2018-10-05T05:39:58.130Z,4.80
2018-10-05T05:42:26.295Z,5.10
2018-10-05T05:44:54.388Z,5.00
2018-10-05T05:47:22.496Z,5.30
2018-10-05T05:49:51.064Z,5.30
2018-10-05T05:52:19.310Z,5.40
2018-10-05T05:54:48.556Z,5.50
2018-10-05T05:57:16.669Z,5.60
2018-10-05T05:59:44.760Z,5.70
2018-10-05T06:02:12.852Z,5.80
2018-10-05T06:04:41.030Z,6.00
2018-10-05T06:07:09.283Z,6.10
2018-10-05T06:09:37.379Z,6.10
2018-10-05T06:12:05.468Z,6.10
2018-10-05T06:14:33.539Z,6.20
2018-10-05T06:17:01.621Z,6.20
2018-10-05T06:19:30.013Z,6.40
2018-10-05T06:21:58.310Z,6.60
2018-10-05T06:24:26.224Z,6.90
2018-10-05T06:26:54.339Z,7.00
2018-10-05T06:29:22.427Z,7.20
2018-10-05T06:31:50.583Z,7.30
2018-10-05T06:34:18.746Z,7.30
2018-10-05T06:36:46.900Z,7.50
2018-10-05T06:39:15.122Z,7.50
2018-10-05T06:41:43.140Z,7.60
2018-10-05T06:44:12.284Z,7.70
2018-10-05T06:46:40.433Z,8.20
2018-10-05T06:49:08.519Z,8.50
2018-10-05T06:51:36.628Z,8.50
2018-10-05T06:54:04.728Z,8.20
2018-10-05T06:56:32.836Z,8.20
2018-10-05T06:59:00.978Z,7.90
2018-10-05T07:01:29.281Z,8.30
2018-10-05T07:03:57.343Z,8.00
2018-10-05T07:06:25.437Z,8.50
2018-10-05T07:08:53.560Z,8.70
2018-10-05T07:11:21.733Z,9.00
2018-10-05T07:13:49.767Z,8.70
2018-10-05T07:16:17.960Z,8.80
2018-10-05T07:18:46.354Z,9.30
2018-10-05T07:21:14.444Z,10.40
2018-10-05T07:23:42.513Z,10.30
2018-10-05T07:26:10.595Z,11.00
2018-10-05T07:28:38.843Z,11.60
2018-10-05T07:31:07.141Z,11.70
2018-10-05T07:33:35.224Z,12.60
2018-10-05T07:36:03.361Z,13.60
2018-10-05T07:38:31.487Z,13.90
2018-10-05T07:41:00.402Z,14.10
2018-10-05T07:43:29.497Z,14.10
2018-10-05T07:45:58.267Z,14.20
2018-10-05T07:48:27.023Z,15.20
2018-10-05T07:50:55.075Z,15.60
2018-10-05T07:53:23.167Z,17.00
2018-10-05T07:55:51.879Z,18.60
2018-10-05T07:58:19.988Z,19.40
2018-10-05T08:00:49.011Z,19.80
2018-10-05T08:03:18.900Z,19.90
2018-10-05T08:05:47.496Z,18.80
2018-10-05T08:08:17.623Z,18.30
2018-10-05T08:10:45.716Z,18.70
2018-10-05T08:13:13.826Z,19.70
2018-10-05T08:15:41.926Z,21.20
2018-10-05T08:18:10.011Z,22.50
2018-10-05T08:20:38.396Z,22.90
2018-10-05T08:23:07.329Z,22.60
2018-10-05T08:25:35.532Z,22.30
2018-10-05T08:28:03.652Z,21.70
2018-10-05T08:30:31.743Z,22.00
2018-10-05T08:33:05.608Z,22.00
2018-10-05T08:35:33.683Z,22.00
2018-10-05T08:38:01.763Z,20.40
2018-10-05T08:40:29.843Z,21.00
2018-10-05T08:42:57.967Z,21.40
2018-10-05T08:45:26.044Z,22.10
2018-10-05T08:47:54.143Z,22.40
2018-10-05T08:50:22.208Z,22.60
2018-10-05T08:52:52.117Z,21.40
2018-10-05T08:55:20.220Z,21.90
2018-10-05T08:57:48.887Z,21.80
2018-10-05T09:00:16.997Z,22.70
2018-10-05T09:02:45.056Z,23.70
2018-10-05T09:05:13.259Z,23.90
2018-10-05T09:07:41.413Z,24.00
2018-10-05T09:10:09.504Z,24.00
2018-10-05T09:12:37.943Z,23.90
2018-10-05T09:15:07.996Z,24.10
2018-10-05T09:17:41.697Z,23.10
2018-10-05T09:20:12.206Z,23.60
2018-10-05T09:22:40.287Z,24.60
2018-10-05T09:25:08.815Z,25.10
2018-10-05T09:27:37.419Z,24.80
2018-10-05T09:30:05.489Z,23.70
2018-10-05T09:32:33.575Z,23.50
2018-10-05T09:35:01.714Z,22.70
2018-10-05T09:37:29.931Z,22.90
2018-10-05T09:39:58.489Z,22.70
2018-10-05T09:42:28.656Z,23.00
2018-10-05T09:44:57.271Z,23.40
2018-10-05T09:47:25.378Z,25.00
2018-10-05T09:49:53.458Z,25.10
2018-10-05T09:52:21.565Z,25.20
2018-10-05T09:54:50.684Z,25.00
2018-10-05T09:57:19.421Z,26.60
2018-10-05T09:59:47.582Z,27.50
2018-10-05T10:02:21.180Z,28.90
2018-10-05T10:04:49.743Z,31.00
2018-10-05T10:07:19.667Z,32.70
2018-10-05T10:09:49.227Z,32.10
2018-10-05T10:12:18.305Z,32.80
2018-10-05T10:14:46.851Z,33.10
2018-10-05T10:17:14.960Z,32.50
2018-10-05T10:19:44.031Z,32.50
2018-10-05T10:22:12.196Z,33.00
2018-10-05T10:24:40.283Z,32.50
2018-10-05T10:27:09.360Z,32.50
2018-10-05T10:29:37.904Z,32.70
2018-10-05T10:32:06.455Z,32.00
2018-10-05T10:34:34.672Z,33.30
2018-10-05T10:37:02.660Z,36.40
2018-10-05T10:39:30.791Z,33.10
2018-10-05T10:41:59.340Z,31.60
2018-10-05T10:44:27.761Z,32.60
2018-10-05T10:46:58.813Z,31.90
2018-10-05T10:49:27.217Z,34.70
2018-10-05T10:51:55.334Z,34.50
2018-10-05T10:54:24.104Z,34.00
2018-10-05T10:56:52.204Z,33.90
2018-10-05T10:59:20.294Z,32.90
2018-10-05T11:01:48.746Z,35.20
2018-10-05T11:04:17.744Z,35.80
2018-10-05T11:06:45.824Z,36.90
2018-10-05T11:09:13.940Z,38.30
2018-10-05T11:11:42.246Z,37.20
2018-10-05T11:14:10.867Z,36.50
2018-10-05T11:16:40.117Z,36.00
2018-10-05T11:19:08.607Z,35.30
2018-10-05T11:21:36.724Z,36.70
2018-10-05T11:24:04.833Z,37.80
2018-10-05T11:26:32.947Z,38.50
2018-10-05T11:29:01.045Z,39.00
2018-10-05T11:31:29.604Z,40.50
2018-10-05T11:33:58.437Z,39.90
2018-10-05T11:36:26.731Z,37.50
2018-10-05T11:38:55.156Z,36.10
2018-10-05T11:41:23.247Z,34.00
2018-10-05T11:43:51.309Z,34.90
2018-10-05T11:46:19.685Z,36.80
2018-10-05T11:48:47.773Z,36.70
2018-10-05T11:51:15.859Z,37.90
2018-10-05T11:53:44.084Z,37.60
2018-10-05T11:56:12.165Z,32.70
2018-10-05T11:58:40.755Z,33.50
2018-10-05T12:01:11.480Z,36.10
2018-10-05T12:03:40.071Z,35.90
2018-10-05T12:06:12.088Z,36.60
2018-10-05T12:08:40.884Z,38.00
2018-10-05T12:11:09.569Z,36.80
2018-10-05T12:13:38.736Z,36.90
2018-10-05T12:16:06.836Z,37.70
2018-10-05T12:18:34.928Z,36.80
2018-10-05T12:21:03.044Z,34.60
2018-10-05T12:23:33.479Z,33.00
2018-10-05T12:26:18.595Z,33.50
2018-10-05T12:28:47.016Z,35.80
2018-10-05T12:31:25.159Z,35.70
2018-10-05T12:33:53.303Z,38.00
2018-10-05T12:36:21.363Z,37.70
2018-10-05T12:38:49.595Z,35.90
2018-10-05T12:41:17.742Z,37.60
2018-10-05T12:43:45.947Z,36.80
2018-10-05T12:46:14.099Z,38.80
2018-10-05T12:48:42.204Z,38.40
2018-10-05T12:51:11.140Z,38.50
2018-10-05T12:53:39.720Z,35.60
2018-10-05T12:56:08.537Z,36.80
2018-10-05T12:58:37.293Z,36.60
2018-10-05T13:01:06.731Z,37.70
2018-10-05T13:03:35.559Z,34.00
2018-10-05T13:06:03.651Z,36.00
2018-10-05T13:08:31.781Z,36.90
2018-10-05T13:11:00.755Z,38.80
2018-10-05T13:13:29.902Z,37.20
2018-10-05T13:15:59.456Z,35.80
2018-10-05T13:18:28.717Z,37.30
2018-10-05T13:20:56.808Z,39.40
2018-10-05T13:23:24.916Z,40.10
2018-10-05T13:25:53.615Z,40.30
2018-10-05T13:28:22.115Z,40.30
2018-10-05T13:30:50.278Z,40.10
2018-10-05T13:33:21.657Z,36.10
2018-10-05T13:35:54.456Z,36.30
2018-10-05T13:38:22.657Z,36.40
2018-10-05T13:40:51.955Z,38.40
2018-10-05T13:43:21.781Z,36.20
2018-10-05T13:45:53.389Z,36.30
2018-10-05T13:48:31.577Z,34.20
2018-10-05T13:51:02.045Z,37.50
2018-10-05T13:53:32.131Z,37.20
2018-10-05T13:56:02.940Z,35.10
2018-10-05T13:58:33.898Z,35.30
2018-10-05T14:01:03.738Z,36.40
2018-10-05T14:03:32.047Z,38.40
2018-10-05T14:06:02.310Z,39.10
2018-10-05T14:08:31.743Z,37.80
2018-10-05T14:11:00.435Z,37.30
2018-10-05T14:13:30.244Z,38.40
2018-10-05T14:16:02.693Z,37.60
2018-10-05T14:18:30.964Z,36.40
2018-10-05T14:21:01.016Z,36.40
2018-10-05T14:23:30.481Z,36.90
2018-10-05T14:25:59.173Z,36.20
2018-10-05T14:28:29.683Z,35.60
2018-10-05T14:30:59.626Z,36.40
2018-10-05T14:33:30.587Z,37.90
2018-10-05T14:36:01.302Z,37.80
2018-10-05T14:38:29.675Z,34.50
2018-10-05T14:40:58.420Z,30.20
2018-10-05T14:43:26.564Z,27.20
2018-10-05T14:45:55.349Z,25.70
2018-10-05T14:48:23.408Z,24.70
2018-10-05T14:50:51.583Z,24.10
2018-10-05T14:53:26.958Z,23.80
2018-10-05T14:56:07.236Z,23.50
2018-10-05T14:58:35.496Z,23.20
2018-10-05T15:01:17.651Z,23.20
2018-10-05T15:03:47.295Z,23.00
2018-10-05T15:06:16.168Z,22.90
2018-10-05T15:08:44.494Z,22.50
2018-10-05T15:11:15.411Z,22.40
2018-10-05T15:13:44.886Z,22.50
2018-10-05T15:16:14.288Z,22.50
2018-10-05T15:18:43.252Z,22.20
2018-10-05T15:21:12.938Z,22.50
2018-10-05T15:23:42.946Z,22.70
2018-10-05T15:26:12.144Z,22.60
2018-10-05T15:28:41.259Z,22.20
2018-10-05T15:31:09.400Z,22.00
2018-10-05T15:33:37.524Z,21.80
2018-10-05T15:36:16.407Z,21.80
2018-10-05T15:38:48.610Z,21.80
2018-10-05T15:41:16.748Z,21.80
2018-10-05T15:43:44.940Z,21.70
2018-10-05T15:46:23.215Z,21.60
2018-10-05T15:48:51.305Z,21.50
2018-10-05T15:51:19.454Z,21.50
2018-10-05T15:53:47.639Z,21.50
2018-10-05T15:56:15.730Z,21.40
2018-10-05T15:58:43.832Z,21.40
2018-10-05T16:01:17.943Z,21.30
2018-10-05T16:03:46.049Z,21.30
2018-10-05T16:06:15.133Z,21.10
2018-10-05T16:08:43.248Z,20.90
2018-10-05T16:11:13.448Z,20.70
2018-10-05T16:13:41.652Z,20.50
2018-10-05T16:16:10.924Z,20.30
2018-10-05T16:18:39.370Z,20.40
2018-10-05T16:21:07.527Z,20.00
2018-10-05T16:23:44.083Z,19.90
2018-10-05T16:26:12.227Z,19.70
2018-10-05T16:28:40.911Z,19.50
2018-10-05T16:31:09.542Z,19.30
2018-10-05T16:33:37.668Z,19.00
2018-10-05T16:36:05.762Z,18.80
2018-10-05T16:38:33.931Z,18.70
2018-10-05T16:41:02.069Z,18.30
2018-10-05T16:43:30.912Z,17.90
2018-10-05T16:45:59.076Z,17.80
2018-10-05T16:48:27.391Z,17.60
2018-10-05T16:50:55.515Z,17.30
2018-10-05T16:53:24.491Z,17.50
2018-10-05T16:55:52.685Z,17.00
2018-10-05T16:58:20.828Z,16.90
2018-10-05T17:00:49.379Z,17.10
2018-10-05T17:03:17.863Z,16.80
2018-10-05T17:05:46.336Z,16.70
2018-10-05T17:08:14.475Z,16.60
2018-10-05T17:10:42.742Z,16.40
2018-10-05T17:13:10.755Z,16.30
2018-10-05T17:15:39.114Z,16.10
2018-10-05T17:18:07.925Z,16.10
2018-10-05T17:20:54.718Z,16.00
2018-10-05T17:23:22.803Z,15.90
2018-10-05T17:25:50.946Z,15.80
2018-10-05T17:28:19.080Z,15.50
2018-10-05T17:30:47.273Z,15.40
2018-10-05T17:33:15.347Z,15.50
2018-10-05T17:38:36.727Z,15.20
2018-10-05T17:41:05.590Z,15.20
2018-10-05T17:43:34.586Z,15.10
2018-10-05T17:46:04.655Z,15.10
2018-10-05T17:48:33.500Z,15.00
2018-10-05T17:51:08.779Z,15.10
2018-10-05T17:53:37.764Z,15.00
2018-10-05T17:56:08.120Z,14.80
2018-10-05T17:58:36.678Z,14.80
2018-10-05T18:01:36.622Z,14.80
2018-10-05T18:04:05.926Z,14.70
2018-10-05T18:06:35.020Z,14.60
